Millenium Air

Millenium Air Since 1998



 METAR AND TAF INFORMATION
METAR FOR EDDW
ADDS - METARS form results

(0628 UTC 18 April 2021)
Data provider http://aviationweather.gov/metar/data/
 
METAR text: EDDW 180620Z 03006KT CAVOK 08/03 Q1022 NOSIG
Conditions at: EDDW (BREMEN , DE) observed 0620 UTC 18 April 2021
Temperature: 8.0°C (46°F)
Dewpoint: 3.0°C (37°F) [RH = 71%]
Pressure (altimeter): 30.18 inches Hg (1022.0 mb)
Winds: from the NNE (30 degrees) at 7 MPH (6 knots; 3.1 m/s)
Visibility: 6 or more miles (10+ km)
Ceiling: ceiling and visibility are OK
Clouds: unknown
Weather: no significant weather observed at this time

METAR text: EDDW 180550Z 02007KT CAVOK 07/03 Q1022 NOSIG
Conditions at: EDDW (BREMEN , DE) observed 0550 UTC 18 April 2021
Temperature: 7.0°C (45°F)
Dewpoint: 3.0°C (37°F) [RH = 76%]
Pressure (altimeter): 30.18 inches Hg (1022.0 mb)
Winds: from the NNE (20 degrees) at 8 MPH (7 knots; 3.6 m/s)
Visibility: 6 or more miles (10+ km)
Ceiling: ceiling and visibility are OK
Clouds: unknown
Weather: no significant weather observed at this time

Forecast for: EDDW (BREMEN , DE)
Text: TAF EDDW 180500Z 1806/1906 02005KT CAVOK
Forecast period: 0600 UTC 18 April 2021 to 0600 UTC 19 April 2021
Forecast type: FROM: standard forecast or significant change
Winds: from the NNE (20 degrees) at 6 MPH (5 knots; 2.6 m/s)
Visibility: 6 or more miles (10+ km)
Ceiling: unknown
Clouds: missing
Weather: NSW  (no significant weather)
Text: TEMPO 1811/1816 04010KT
Forecast period: 1100 to 1600 UTC 18 April 2021
Forecast type: TEMPORARY: The following changes expected for less than half the time period
Winds: from the NE (40 degrees) at 12 MPH (10 knots; 5.1 m/s)
Visibility: missing
Ceiling: unknown
Clouds: missing
Weather: no significant weather forecast for this period
Text: PROB40
Forecast period: 0300 to 0600 UTC 19 April 2021
Forecast type: TEMPORARY: The following changes expected for less than half the time period
Visibility: missing
Ceiling: 600 feet AGL
Clouds: broken clouds at 600 feet AGL
Weather: no significant weather forecast for this period

 AIRPORT MAP

 RUNWAY INFORMATION
Runway 05 Runway length 2297 ft Runway width 75 ft
Runway elevation 0 ft Runway displaced threshold 0 ft Runway heading 52
Runway 23 Runway length 2297 ft Runway width 75 ft
Runway elevation 13 ft Runway displaced threshold 0 ft Runway heading 232
Runway 09 Runway length 6693 ft Runway width 148 ft
Runway elevation 13 ft Runway displaced threshold 0 ft Runway heading 88
Runway 27 Runway length 6693 ft Runway width 148 ft
Runway elevation 14 ft Runway displaced threshold 0 ft Runway heading 268

 AIRPORT FREQUENCIES
Type AFIS Name INFO Frequency 125.1 MHZ
Type APP Name RADAR Frequency 124.8 MHZ
Type ATIS Name ATIS Frequency 117.45 MHZ
Type GND Name GND Frequency 121.75 MHZ
Type TWR Name TWR Frequency 120.325 MHZ

 AIRPORT NEAR NAVIGATION AIDS
Type VOR-DME Name Bremen Frequency 117450 KHZ